createdAt,value
2022-11-19T00:01:43.725Z,97.16
2022-11-19T00:04:10.226Z,97.41
2022-11-19T00:06:36.642Z,97.31
2022-11-19T00:09:05.426Z,97.50
2022-11-19T00:11:50.396Z,97.53
2022-11-19T00:14:16.814Z,97.25
2022-11-19T00:16:43.937Z,97.11
2022-11-19T00:19:11.463Z,97.09
2022-11-19T00:21:38.164Z,96.90
2022-11-19T00:24:05.149Z,97.13
2022-11-19T00:26:31.536Z,96.98
2022-11-19T00:28:58.206Z,96.95
2022-11-19T00:31:24.710Z,97.09
2022-11-19T00:33:51.364Z,96.94
2022-11-19T00:36:18.077Z,96.87
2022-11-19T00:38:44.611Z,96.85
2022-11-19T00:41:11.774Z,97.38
2022-11-19T00:43:47.293Z,96.53
2022-11-19T00:46:18.502Z,97.03
2022-11-19T00:48:46.222Z,96.96
2022-11-19T00:51:13.607Z,96.90
2022-11-19T00:53:40.434Z,96.66
2022-11-19T00:56:09.908Z,97.06
2022-11-19T00:58:36.566Z,96.54
2022-11-19T01:01:03.201Z,97.07
2022-11-19T01:03:29.825Z,96.75
2022-11-19T01:05:56.450Z,96.63
2022-11-19T01:08:23.158Z,96.68
2022-11-19T01:10:49.610Z,96.56
2022-11-19T01:13:34.560Z,96.76
2022-11-19T01:16:22.045Z,96.47
2022-11-19T01:18:49.929Z,96.63
2022-11-19T01:21:17.713Z,96.63
2022-11-19T01:23:45.331Z,96.35
2022-11-19T01:26:12.837Z,96.39
2022-11-19T01:28:39.596Z,96.34
2022-11-19T01:31:21.111Z,96.19
2022-11-19T01:33:48.789Z,95.88
2022-11-19T01:36:18.671Z,95.74
2022-11-19T01:38:50.735Z,95.75
2022-11-19T01:41:23.078Z,95.56
2022-11-19T01:43:53.798Z,95.32
2022-11-19T01:46:26.042Z,95.25
2022-11-19T01:49:01.669Z,94.95
2022-11-19T01:51:38.986Z,94.93
2022-11-19T01:54:10.803Z,94.74
2022-11-19T01:56:37.306Z,95.18
2022-11-19T01:59:08.080Z,94.62
2022-11-19T02:01:34.797Z,94.88
2022-11-19T02:04:03.111Z,94.72
2022-11-19T02:06:30.793Z,94.54
2022-11-19T02:08:57.282Z,94.38
2022-11-19T02:11:23.600Z,94.42
2022-11-19T02:13:55.783Z,94.29
2022-11-19T02:16:43.479Z,94.18
2022-11-19T02:19:34.655Z,94.20
2022-11-19T02:22:46.256Z,93.82
2022-11-19T02:25:32.843Z,93.55
2022-11-19T02:28:46.662Z,93.47
2022-11-19T02:31:35.907Z,93.83
2022-11-19T02:34:12.699Z,93.74
2022-11-19T02:37:01.284Z,93.65
2022-11-19T02:39:40.441Z,92.94
2022-11-19T02:42:12.654Z,92.90
2022-11-19T02:45:00.168Z,92.83
2022-11-19T02:47:35.320Z,92.82
2022-11-19T02:50:08.654Z,92.89
2022-11-19T02:52:37.002Z,92.71
2022-11-19T02:55:03.892Z,92.75
2022-11-19T02:57:30.341Z,93.04
2022-11-19T03:00:20.592Z,92.70
2022-11-19T03:03:14.845Z,92.67
2022-11-19T03:05:49.530Z,92.31
2022-11-19T03:08:16.353Z,91.93
2022-11-19T03:10:54.684Z,92.26
2022-11-19T03:13:43.429Z,92.16
2022-11-19T03:16:36.006Z,92.07
2022-11-19T03:19:11.704Z,92.04
2022-11-19T03:21:52.021Z,91.76
2022-11-19T03:24:27.511Z,91.50
2022-11-19T03:26:59.555Z,92.01
2022-11-19T03:29:27.914Z,91.45
2022-11-19T03:32:01.075Z,91.50
2022-11-19T03:34:30.499Z,90.75
2022-11-19T03:37:00.771Z,90.73
2022-11-19T03:39:27.572Z,90.66
2022-11-19T03:41:56.422Z,90.81
2022-11-19T03:44:36.364Z,90.77
2022-11-19T03:47:08.109Z,90.62
2022-11-19T03:49:39.895Z,90.60
2022-11-19T03:52:10.175Z,91.10
2022-11-19T03:54:38.302Z,90.82
2022-11-19T03:57:08.050Z,90.69
2022-11-19T03:59:35.038Z,90.51
2022-11-19T04:02:04.769Z,90.23
2022-11-19T04:04:37.456Z,90.10
2022-11-19T04:07:15.177Z,90.00
2022-11-19T04:09:42.251Z,89.89
2022-11-19T04:12:15.572Z,89.80
2022-11-19T04:14:42.031Z,89.83
2022-11-19T04:17:08.527Z,89.75
2022-11-19T04:19:35.026Z,90.03
2022-11-19T04:22:01.495Z,89.77
2022-11-19T04:24:27.946Z,89.74
2022-11-19T04:26:54.360Z,89.54
2022-11-19T04:29:20.980Z,89.70
2022-11-19T04:31:47.758Z,89.66
2022-11-19T04:34:14.278Z,89.56
2022-11-19T04:36:42.106Z,88.96
2022-11-19T04:39:10.248Z,89.22
2022-11-19T04:41:36.699Z,88.98
2022-11-19T04:44:03.270Z,89.05
2022-11-19T04:46:29.818Z,89.16
2022-11-19T04:48:56.411Z,89.35
2022-11-19T04:51:22.907Z,89.05
2022-11-19T04:53:49.391Z,89.42
2022-11-19T04:56:16.434Z,89.05
2022-11-19T04:58:43.104Z,89.25
2022-11-19T05:01:09.653Z,88.95
2022-11-19T05:03:36.291Z,88.84
2022-11-19T05:06:02.788Z,89.07
2022-11-19T05:08:29.216Z,89.23
2022-11-19T05:10:55.730Z,89.11
2022-11-19T05:13:22.262Z,88.95
2022-11-19T05:15:48.715Z,88.75
2022-11-19T05:18:15.114Z,88.72
2022-11-19T05:20:41.711Z,89.01
2022-11-19T05:23:08.285Z,88.77
2022-11-19T05:25:34.787Z,88.67
2022-11-19T05:28:01.311Z,88.57
2022-11-19T05:30:27.952Z,88.38
2022-11-19T05:32:54.536Z,88.41
2022-11-19T05:35:20.990Z,88.22
2022-11-19T05:37:50.953Z,88.21
2022-11-19T05:40:17.844Z,88.24
2022-11-19T05:42:44.339Z,88.34
2022-11-19T05:45:11.557Z,88.49
2022-11-19T05:47:38.163Z,88.06
2022-11-19T05:50:05.641Z,88.04
2022-11-19T05:52:32.233Z,88.11
2022-11-19T05:54:58.742Z,88.19
2022-11-19T05:57:25.241Z,87.84
2022-11-19T05:59:51.635Z,88.22
2022-11-19T06:02:18.086Z,87.98
2022-11-19T06:04:44.618Z,88.17
2022-11-19T06:07:11.356Z,88.01
2022-11-19T06:09:37.817Z,88.11
2022-11-19T06:12:04.499Z,88.09
2022-11-19T06:14:30.945Z,87.76
2022-11-19T06:16:59.574Z,87.80
2022-11-19T06:19:26.670Z,87.75
2022-11-19T06:21:53.450Z,87.60
2022-11-19T06:24:20.772Z,87.59
2022-11-19T06:26:47.154Z,87.67
2022-11-19T06:29:14.986Z,87.57
2022-11-19T06:31:41.617Z,87.12
2022-11-19T06:34:08.271Z,87.81
2022-11-19T06:36:39.922Z,87.53
2022-11-19T06:39:08.904Z,87.40
2022-11-19T06:41:35.511Z,87.66
2022-11-19T06:44:02.278Z,87.34
2022-11-19T06:46:28.712Z,87.35
2022-11-19T06:48:55.121Z,87.67
2022-11-19T06:51:21.794Z,87.49
2022-11-19T06:53:48.293Z,87.60
2022-11-19T06:56:14.853Z,87.69
2022-11-19T06:58:41.532Z,87.44
2022-11-19T07:01:08.008Z,87.55
2022-11-19T07:03:35.590Z,87.66
2022-11-19T07:06:04.397Z,87.01
2022-11-19T07:08:34.349Z,87.27
2022-11-19T07:11:01.221Z,87.16
2022-11-19T07:13:47.689Z,87.32
2022-11-19T07:16:14.175Z,87.49
2022-11-19T07:18:40.655Z,87.15
2022-11-19T07:21:07.138Z,87.47
2022-11-19T07:23:33.566Z,87.43
2022-11-19T07:26:03.087Z,87.33
2022-11-19T07:28:29.533Z,87.61
2022-11-19T07:30:56.066Z,87.71
2022-11-19T07:33:22.546Z,87.42
2022-11-19T07:35:48.934Z,87.36
2022-11-19T07:38:15.374Z,87.42
2022-11-19T07:40:41.784Z,87.41
2022-11-19T07:43:08.208Z,87.25
2022-11-19T07:45:37.601Z,86.83
2022-11-19T07:48:04.211Z,86.54
2022-11-19T07:50:30.718Z,86.82
2022-11-19T07:53:00.289Z,86.30
2022-11-19T07:55:26.739Z,86.29
2022-11-19T07:57:53.733Z,85.86
2022-11-19T08:00:20.628Z,86.31
2022-11-19T08:02:47.131Z,86.23
2022-11-19T08:05:13.545Z,85.85
2022-11-19T08:07:40.184Z,85.81
2022-11-19T08:10:07.269Z,86.14
2022-11-19T08:12:33.798Z,86.29
2022-11-19T08:15:00.287Z,86.25
2022-11-19T08:17:45.466Z,86.08
2022-11-19T08:20:12.378Z,86.32
2022-11-19T08:22:40.943Z,85.99
2022-11-19T08:25:07.614Z,85.61
2022-11-19T08:27:34.732Z,85.74
2022-11-19T08:30:01.186Z,85.74
2022-11-19T08:32:27.676Z,85.66
2022-11-19T08:34:54.135Z,85.32
2022-11-19T08:37:20.525Z,85.54
2022-11-19T08:39:47.004Z,85.48
2022-11-19T08:42:32.263Z,85.43
2022-11-19T08:44:58.661Z,85.10
2022-11-19T08:47:25.128Z,85.32
2022-11-19T08:49:51.634Z,85.05
2022-11-19T08:52:18.094Z,84.62
2022-11-19T08:54:44.596Z,84.94
2022-11-19T08:57:11.072Z,84.64
2022-11-19T08:59:37.523Z,84.55
2022-11-19T09:02:04.067Z,84.01
2022-11-19T09:04:30.585Z,83.63
2022-11-19T09:06:57.457Z,83.96
2022-11-19T09:09:23.918Z,83.81
2022-11-19T09:11:50.382Z,83.11
2022-11-19T09:14:17.022Z,83.45
2022-11-19T09:16:43.607Z,83.16
2022-11-19T09:19:09.978Z,82.85
2022-11-19T09:21:36.431Z,82.92
2022-11-19T09:24:03.167Z,83.04
2022-11-19T09:26:29.684Z,82.76
2022-11-19T09:28:56.096Z,82.55
2022-11-19T09:31:22.571Z,83.06
2022-11-19T09:33:52.027Z,82.66
2022-11-19T09:36:19.700Z,82.49
2022-11-19T09:38:47.078Z,82.63
2022-11-19T09:42:02.675Z,82.63
2022-11-19T09:44:57.956Z,82.75
2022-11-19T09:47:58.637Z,82.69
2022-11-19T09:50:28.449Z,82.65
2022-11-19T09:53:00.430Z,81.98
2022-11-19T09:55:32.253Z,82.41
2022-11-19T09:57:59.888Z,82.84
2022-11-19T10:00:30.732Z,81.94
2022-11-19T10:03:00.948Z,81.71
2022-11-19T10:06:07.683Z,82.03
2022-11-19T10:09:32.450Z,81.95
2022-11-19T10:12:10.581Z,81.11
2022-11-19T10:14:45.673Z,81.16
2022-11-19T10:17:17.652Z,80.92
2022-11-19T10:20:00.554Z,80.80
2022-11-19T10:22:54.230Z,80.68
2022-11-19T10:25:28.514Z,80.38
2022-11-19T10:28:11.104Z,80.37
2022-11-19T10:30:40.756Z,79.79
2022-11-19T10:33:21.547Z,80.02
2022-11-19T10:35:52.940Z,79.64
2022-11-19T10:38:28.446Z,79.92
2022-11-19T10:41:01.611Z,79.74
2022-11-19T10:43:59.506Z,79.49
2022-11-19T10:46:28.689Z,79.05
2022-11-19T10:48:58.562Z,78.82
2022-11-19T10:51:29.613Z,78.32
2022-11-19T10:53:57.295Z,77.72
2022-11-19T10:56:39.433Z,77.68
2022-11-19T10:59:12.761Z,77.49
2022-11-19T11:01:44.498Z,77.17
2022-11-19T11:04:25.796Z,77.52
2022-11-19T11:06:54.017Z,77.25
2022-11-19T11:09:34.670Z,77.43
2022-11-19T11:12:29.757Z,77.49
2022-11-19T11:15:07.630Z,76.50
2022-11-19T11:17:36.650Z,76.21
2022-11-19T11:20:15.699Z,76.56
2022-11-19T11:22:43.302Z,76.13
2022-11-19T11:25:22.487Z,76.13
2022-11-19T11:31:09.438Z,75.93
2022-11-19T11:33:54.068Z,75.93
2022-11-19T11:36:25.407Z,75.30
2022-11-19T11:38:55.146Z,75.54
2022-11-19T11:42:04.733Z,74.87
2022-11-19T11:44:32.607Z,74.34
2022-11-19T11:47:23.480Z,73.90
2022-11-19T11:49:57.197Z,74.04
2022-11-19T11:52:36.187Z,73.84
2022-11-19T11:55:06.811Z,73.65
2022-11-19T11:57:35.777Z,73.19
2022-11-19T12:00:24.745Z,72.83
2022-11-19T12:03:07.298Z,72.76
2022-11-19T12:06:07.469Z,72.99
2022-11-19T12:08:47.310Z,71.92
2022-11-19T12:11:56.363Z,72.54
2022-11-19T12:14:49.084Z,72.26
2022-11-19T12:17:44.269Z,72.01
2022-11-19T12:20:22.538Z,71.45
2022-11-19T12:22:57.853Z,70.99
2022-11-19T12:25:59.750Z,71.34
2022-11-19T12:28:38.680Z,70.75
2022-11-19T12:31:31.292Z,70.03
2022-11-19T12:34:38.391Z,69.94
2022-11-19T12:37:36.356Z,69.31
2022-11-19T12:40:09.116Z,68.07
2022-11-19T12:43:03.266Z,68.15
2022-11-19T12:46:05.115Z,68.58
2022-11-19T12:48:57.514Z,68.48
2022-11-19T12:51:54.872Z,67.87
2022-11-19T12:54:35.542Z,67.73
2022-11-19T12:57:16.321Z,67.12
2022-11-19T13:00:05.364Z,66.93
2022-11-19T13:02:42.395Z,66.07
2022-11-19T13:05:30.611Z,66.11
2022-11-19T13:08:13.562Z,65.08
2022-11-19T13:11:00.194Z,63.71
2022-11-19T13:13:30.378Z,63.80
2022-11-19T13:16:12.636Z,63.98
2022-11-19T13:18:44.051Z,63.43
2022-11-19T13:21:23.510Z,62.85
2022-11-19T13:23:52.823Z,62.45
2022-11-19T13:26:25.898Z,62.99
2022-11-19T13:29:22.966Z,62.69
2022-11-19T13:32:01.110Z,62.59
2022-11-19T13:34:59.488Z,62.48
2022-11-19T13:37:40.740Z,62.02
2022-11-19T13:40:19.930Z,62.32
2022-11-19T13:43:25.400Z,60.67
2022-11-19T13:46:21.911Z,61.86
2022-11-19T13:49:02.638Z,61.46
2022-11-19T13:51:38.072Z,60.99
2022-11-19T13:54:07.638Z,60.97
2022-11-19T13:56:40.791Z,61.77
2022-11-19T13:59:08.694Z,60.54
2022-11-19T14:01:52.265Z,60.39
2022-11-19T14:04:21.471Z,60.22
2022-11-19T14:07:06.560Z,59.99
2022-11-19T14:09:58.984Z,60.65
2022-11-19T14:13:10.215Z,60.07
2022-11-19T14:16:15.870Z,59.93
2022-11-19T14:19:06.973Z,59.38
2022-11-19T14:21:51.982Z,59.37
2022-11-19T14:24:43.149Z,59.97
2022-11-19T14:27:23.433Z,60.25
2022-11-19T14:29:49.845Z,59.28
2022-11-19T14:32:16.243Z,59.52
2022-11-19T14:34:47.750Z,59.42
2022-11-19T14:37:41.784Z,59.83
2022-11-19T14:40:15.041Z,59.14
2022-11-19T14:43:18.545Z,59.66
2022-11-19T14:46:05.326Z,60.10
2022-11-19T14:48:34.823Z,59.46
2022-11-19T14:51:09.957Z,59.75
2022-11-19T14:53:47.137Z,58.99
2022-11-19T14:56:15.592Z,59.46
2022-11-19T14:58:55.614Z,59.61
2022-11-19T15:01:23.750Z,59.37
2022-11-19T15:03:57.611Z,59.75
2022-11-19T15:06:25.525Z,59.55
2022-11-19T15:08:53.919Z,59.12
2022-11-19T15:11:21.069Z,59.41
2022-11-19T15:14:08.934Z,59.87
2022-11-19T15:16:36.037Z,60.22
2022-11-19T15:19:25.991Z,60.49
2022-11-19T15:22:08.267Z,60.77
2022-11-19T15:25:00.599Z,61.10
2022-11-19T15:27:54.055Z,61.06
2022-11-19T15:30:27.093Z,61.58
2022-11-19T15:33:05.830Z,61.77
2022-11-19T15:36:14.500Z,62.26
2022-11-19T15:38:48.002Z,63.29
2022-11-19T15:41:21.025Z,63.24
2022-11-19T15:43:51.803Z,62.56
2022-11-19T15:46:34.942Z,62.72
2022-11-19T15:49:10.379Z,62.81
2022-11-19T15:51:59.443Z,63.34
2022-11-19T15:54:31.888Z,63.27
2022-11-19T15:57:02.690Z,63.85
2022-11-19T15:59:32.662Z,64.11
2022-11-19T16:02:05.030Z,63.93
2022-11-19T16:04:36.539Z,64.09
2022-11-19T16:07:05.835Z,65.47
2022-11-19T16:09:33.259Z,65.90
2022-11-19T16:12:19.884Z,65.23
2022-11-19T16:15:11.752Z,65.58
2022-11-19T16:17:46.821Z,65.63
2022-11-19T16:20:13.181Z,67.02
2022-11-19T16:22:47.965Z,66.25
2022-11-19T16:25:23.942Z,66.49
2022-11-19T16:27:50.637Z,66.86
2022-11-19T16:30:22.788Z,68.91
2022-11-19T16:32:50.361Z,67.89
2022-11-19T16:35:31.706Z,69.38
2022-11-19T16:38:00.124Z,68.75
2022-11-19T16:40:47.993Z,67.94
2022-11-19T16:43:15.164Z,67.13
2022-11-19T16:45:44.522Z,67.42
2022-11-19T16:48:43.564Z,67.43
2022-11-19T16:51:34.048Z,67.90
2022-11-19T16:54:01.083Z,67.39
2022-11-19T16:56:33.841Z,68.20
2022-11-19T16:59:03.895Z,68.25
2022-11-19T17:01:31.454Z,68.63
2022-11-19T17:04:03.751Z,68.98
2022-11-19T17:06:32.534Z,69.51
2022-11-19T17:09:01.421Z,69.31
2022-11-19T17:12:07.325Z,69.54
2022-11-19T17:14:39.635Z,69.53
2022-11-19T17:17:25.442Z,70.87
2022-11-19T17:19:52.021Z,70.19
2022-11-19T17:22:21.813Z,70.37
2022-11-19T17:24:48.663Z,70.39
2022-11-19T17:27:32.874Z,70.31
2022-11-19T17:30:19.102Z,70.62
2022-11-19T17:32:48.674Z,70.79
2022-11-19T17:35:36.368Z,70.82
2022-11-19T17:38:24.159Z,71.22
2022-11-19T17:40:56.418Z,70.99
2022-11-19T17:43:45.414Z,71.34
2022-11-19T17:46:11.817Z,71.24
2022-11-19T17:48:40.951Z,72.19
2022-11-19T17:51:15.010Z,71.77
2022-11-19T17:53:41.485Z,72.14
2022-11-19T17:56:18.730Z,72.69
2022-11-19T17:58:45.162Z,72.43
2022-11-19T18:01:14.494Z,72.87
2022-11-19T18:03:41.139Z,73.00
2022-11-19T18:06:08.519Z,73.11
2022-11-19T18:08:36.868Z,72.74
2022-11-19T18:11:04.715Z,72.62
2022-11-19T18:13:35.228Z,73.01
2022-11-19T18:16:01.679Z,73.82
2022-11-19T18:18:28.176Z,73.64
2022-11-19T18:21:00.536Z,73.70
2022-11-19T18:23:28.326Z,73.89
2022-11-19T18:25:54.835Z,73.74
2022-11-19T18:28:21.226Z,73.75
2022-11-19T18:30:47.716Z,73.76
2022-11-19T18:33:14.175Z,73.61
2022-11-19T18:35:40.668Z,73.37
2022-11-19T18:38:07.059Z,73.27
2022-11-19T18:40:33.555Z,73.59
2022-11-19T18:43:18.690Z,72.93
2022-11-19T18:45:45.190Z,73.69
2022-11-19T18:48:11.639Z,73.19
2022-11-19T18:50:38.159Z,73.42
2022-11-19T18:53:04.597Z,73.14
2022-11-19T18:55:31.241Z,72.79
2022-11-19T18:57:57.683Z,72.91
2022-11-19T19:00:24.263Z,72.90
2022-11-19T19:02:50.710Z,72.81
2022-11-19T19:05:17.207Z,72.56
2022-11-19T19:07:43.728Z,72.91
2022-11-19T19:10:10.924Z,73.45
2022-11-19T19:12:37.304Z,73.20
2022-11-19T19:15:04.196Z,73.07
2022-11-19T19:17:30.602Z,73.13
2022-11-19T19:19:57.040Z,73.37
2022-11-19T19:22:23.634Z,73.73
2022-11-19T19:24:53.845Z,73.76
2022-11-19T19:27:23.452Z,73.81
2022-11-19T19:29:49.926Z,73.92
2022-11-19T19:32:16.353Z,74.10
2022-11-19T19:34:42.775Z,74.25
2022-11-19T19:37:09.258Z,74.08
2022-11-19T19:39:35.693Z,74.26
2022-11-19T19:42:02.208Z,74.12
2022-11-19T19:44:28.678Z,74.73
2022-11-19T19:46:55.120Z,74.73
2022-11-19T19:49:22.392Z,74.64
2022-11-19T19:51:49.115Z,74.98
2022-11-19T19:54:15.931Z,75.34
2022-11-19T19:56:42.644Z,75.80
2022-11-19T19:59:11.391Z,75.92
2022-11-19T20:01:38.024Z,76.17
2022-11-19T20:04:10.124Z,76.01
2022-11-19T20:06:38.825Z,76.37
2022-11-19T20:09:08.373Z,76.59
2022-11-19T20:11:36.136Z,76.43
2022-11-19T20:14:02.572Z,76.38
2022-11-19T20:16:31.749Z,77.33
2022-11-19T20:18:59.671Z,77.06
2022-11-19T20:21:29.330Z,77.23
2022-11-19T20:23:55.904Z,77.47
2022-11-19T20:26:25.099Z,78.52
2022-11-19T20:28:59.970Z,78.48
2022-11-19T20:31:27.488Z,78.32
2022-11-19T20:34:02.542Z,78.17
2022-11-19T20:36:31.717Z,78.70
2022-11-19T20:38:58.863Z,78.55
2022-11-19T20:41:45.185Z,78.58
2022-11-19T20:44:23.104Z,78.72
2022-11-19T20:46:59.948Z,79.22
2022-11-19T20:49:32.563Z,79.30
2022-11-19T20:51:59.782Z,79.36
2022-11-19T20:54:26.874Z,79.63
2022-11-19T20:56:54.628Z,79.62
2022-11-19T20:59:22.653Z,79.81
2022-11-19T21:01:49.934Z,80.12
2022-11-19T21:04:16.847Z,80.40
2022-11-19T21:06:44.442Z,80.44
2022-11-19T21:09:10.971Z,80.39
2022-11-19T21:11:37.846Z,80.64
2022-11-19T21:14:04.724Z,80.99
2022-11-19T21:16:32.707Z,81.00
2022-11-19T21:18:59.322Z,80.82
2022-11-19T21:21:25.868Z,81.27
2022-11-19T21:23:53.674Z,81.66
2022-11-19T21:26:25.051Z,82.08
2022-11-19T21:28:53.867Z,82.08
2022-11-19T21:31:23.693Z,81.99
2022-11-19T21:33:50.112Z,82.11
2022-11-19T21:36:16.845Z,82.34
2022-11-19T21:38:43.346Z,82.75
2022-11-19T21:41:09.836Z,82.74
2022-11-19T21:43:36.941Z,82.92
2022-11-19T21:46:07.411Z,83.15
2022-11-19T21:48:33.921Z,83.48
2022-11-19T21:51:05.655Z,83.34
2022-11-19T21:53:31.957Z,83.49
2022-11-19T21:55:58.908Z,83.29
2022-11-19T21:58:25.391Z,83.70
2022-11-19T22:00:57.322Z,84.25
2022-11-19T22:03:23.748Z,84.14
2022-11-19T22:06:01.341Z,84.42
2022-11-19T22:08:32.328Z,84.52
2022-11-19T22:10:59.449Z,84.32
2022-11-19T22:13:25.950Z,84.39
2022-11-19T22:16:00.280Z,84.61
2022-11-19T22:18:26.729Z,85.21
2022-11-19T22:21:03.418Z,85.18
2022-11-19T22:23:30.329Z,85.22
2022-11-19T22:25:57.149Z,85.76
2022-11-19T22:28:23.728Z,86.00
2022-11-19T22:30:54.088Z,88.67
2022-11-19T22:33:20.827Z,88.83
2022-11-19T22:35:47.523Z,88.24
2022-11-19T22:38:15.197Z,87.68
2022-11-19T22:40:41.597Z,87.19
2022-11-19T22:43:08.026Z,86.79
2022-11-19T22:45:34.542Z,86.74
2022-11-19T22:48:00.975Z,86.59
2022-11-19T22:50:27.369Z,86.42
2022-11-19T22:52:53.789Z,86.12
2022-11-19T22:55:20.332Z,85.98
2022-11-19T22:57:46.781Z,86.37
2022-11-19T23:00:33.628Z,86.45
2022-11-19T23:03:00.125Z,86.75
2022-11-19T23:05:26.557Z,86.76
2022-11-19T23:07:52.958Z,86.58
2022-11-19T23:10:19.370Z,86.72
2022-11-19T23:13:04.614Z,86.57
2022-11-19T23:15:31.007Z,86.47
2022-11-19T23:17:57.436Z,86.73
2022-11-19T23:20:23.915Z,86.58
2022-11-19T23:22:50.411Z,86.98
2022-11-19T23:25:16.864Z,87.02
2022-11-19T23:27:43.254Z,87.15
2022-11-19T23:30:10.133Z,87.04
2022-11-19T23:32:36.560Z,87.02
2022-11-19T23:35:03.143Z,87.28
2022-11-19T23:37:29.542Z,87.34
2022-11-19T23:39:55.979Z,87.13
2022-11-19T23:42:22.543Z,87.26
2022-11-19T23:44:48.953Z,87.26
2022-11-19T23:47:15.409Z,87.17
2022-11-19T23:49:41.990Z,87.62
2022-11-19T23:52:08.443Z,87.51
2022-11-19T23:54:34.896Z,87.34
2022-11-19T23:57:01.392Z,87.65
2022-11-19T23:59:27.994Z,87.90
